sensor_id;sensor_type;location;lat;lon;timestamp;temperature;humidity
28087;DHT22;15392;48.912;8.380;2023-01-19T00:00:08;6.30;52.10
28087;DHT22;15392;48.912;8.380;2023-01-19T00:02:36;6.30;52.40
28087;DHT22;15392;48.912;8.380;2023-01-19T00:05:03;6.40;52.70
28087;DHT22;15392;48.912;8.380;2023-01-19T00:07:30;6.40;52.50
28087;DHT22;15392;48.912;8.380;2023-01-19T00:09:56;6.40;52.30
28087;DHT22;15392;48.912;8.380;2023-01-19T00:12:22;6.40;52.10
28087;DHT22;15392;48.912;8.380;2023-01-19T00:14:48;6.40;51.90
28087;DHT22;15392;48.912;8.380;2023-01-19T00:17:14;6.40;51.90
28087;DHT22;15392;48.912;8.380;2023-01-19T00:19:39;6.40;51.90
28087;DHT22;15392;48.912;8.380;2023-01-19T00:22:05;6.40;51.80
28087;DHT22;15392;48.912;8.380;2023-01-19T00:24:31;6.40;51.80
28087;DHT22;15392;48.912;8.380;2023-01-19T00:26:57;6.40;51.90
28087;DHT22;15392;48.912;8.380;2023-01-19T00:29:23;6.40;52.00
28087;DHT22;15392;48.912;8.380;2023-01-19T00:31:49;6.40;51.80
28087;DHT22;15392;48.912;8.380;2023-01-19T00:34:15;6.40;51.80
28087;DHT22;15392;48.912;8.380;2023-01-19T00:36:41;6.40;52.00
28087;DHT22;15392;48.912;8.380;2023-01-19T00:39:07;6.50;52.10
28087;DHT22;15392;48.912;8.380;2023-01-19T00:41:33;6.50;52.10
28087;DHT22;15392;48.912;8.380;2023-01-19T00:44:17;6.40;52.20
28087;DHT22;15392;48.912;8.380;2023-01-19T00:46:43;6.50;52.30
28087;DHT22;15392;48.912;8.380;2023-01-19T00:49:09;6.50;52.20
28087;DHT22;15392;48.912;8.380;2023-01-19T00:51:35;6.50;52.20
28087;DHT22;15392;48.912;8.380;2023-01-19T00:54:00;6.50;52.30
28087;DHT22;15392;48.912;8.380;2023-01-19T00:56:32;6.50;52.20
28087;DHT22;15392;48.912;8.380;2023-01-19T00:58:58;6.50;52.10
28087;DHT22;15392;48.912;8.380;2023-01-19T01:01:25;6.60;52.00
28087;DHT22;15392;48.912;8.380;2023-01-19T01:03:51;6.50;51.90
28087;DHT22;15392;48.912;8.380;2023-01-19T01:06:18;6.50;52.10
28087;DHT22;15392;48.912;8.380;2023-01-19T01:08:45;6.60;52.00
28087;DHT22;15392;48.912;8.380;2023-01-19T01:11:10;6.60;52.00
28087;DHT22;15392;48.912;8.380;2023-01-19T01:13:36;6.60;51.90
28087;DHT22;15392;48.912;8.380;2023-01-19T01:16:02;6.60;51.70
28087;DHT22;15392;48.912;8.380;2023-01-19T01:18:28;6.60;51.70
28087;DHT22;15392;48.912;8.380;2023-01-19T01:21:05;6.60;51.70
28087;DHT22;15392;48.912;8.380;2023-01-19T01:23:32;6.60;51.60
28087;DHT22;15392;48.912;8.380;2023-01-19T01:25:58;6.60;51.70
28087;DHT22;15392;48.912;8.380;2023-01-19T01:28:24;6.60;51.70
28087;DHT22;15392;48.912;8.380;2023-01-19T01:30:55;6.60;51.60
28087;DHT22;15392;48.912;8.380;2023-01-19T01:33:21;6.60;51.60
28087;DHT22;15392;48.912;8.380;2023-01-19T01:35:48;6.60;51.50
28087;DHT22;15392;48.912;8.380;2023-01-19T01:38:15;6.60;51.60
28087;DHT22;15392;48.912;8.380;2023-01-19T01:40:41;6.60;51.70
28087;DHT22;15392;48.912;8.380;2023-01-19T01:43:15;6.60;51.50
28087;DHT22;15392;48.912;8.380;2023-01-19T01:45:42;6.60;51.50
28087;DHT22;15392;48.912;8.380;2023-01-19T01:51:17;6.70;51.40
28087;DHT22;15392;48.912;8.380;2023-01-19T01:56:52;6.70;51.40
28087;DHT22;15392;48.912;8.380;2023-01-19T01:59:26;6.70;51.50
28087;DHT22;15392;48.912;8.380;2023-01-19T02:02:08;6.60;51.50
28087;DHT22;15392;48.912;8.380;2023-01-19T02:05:04;6.60;51.40
28087;DHT22;15392;48.912;8.380;2023-01-19T02:10:32;6.70;51.30
28087;DHT22;15392;48.912;8.380;2023-01-19T02:13:17;6.70;51.30
28087;DHT22;15392;48.912;8.380;2023-01-19T02:16:27;6.70;51.40
28087;DHT22;15392;48.912;8.380;2023-01-19T02:18:35;6.70;51.50
28087;DHT22;15392;48.912;8.380;2023-01-19T02:21:21;6.70;51.50
28087;DHT22;15392;48.912;8.380;2023-01-19T02:23:54;6.70;51.90
28087;DHT22;15392;48.912;8.380;2023-01-19T02:26:34;6.70;51.70
28087;DHT22;15392;48.912;8.380;2023-01-19T02:29:08;6.70;51.50
28087;DHT22;15392;48.912;8.380;2023-01-19T02:31:36;6.70;51.30
28087;DHT22;15392;48.912;8.380;2023-01-19T02:34:05;6.70;51.30
28087;DHT22;15392;48.912;8.380;2023-01-19T02:36:54;6.70;51.40
28087;DHT22;15392;48.912;8.380;2023-01-19T02:39:28;6.80;51.40
28087;DHT22;15392;48.912;8.380;2023-01-19T02:42:03;6.70;51.30
28087;DHT22;15392;48.912;8.380;2023-01-19T02:44:32;6.80;51.30
28087;DHT22;15392;48.912;8.380;2023-01-19T02:46:59;6.80;51.30
28087;DHT22;15392;48.912;8.380;2023-01-19T02:49:27;6.80;51.30
28087;DHT22;15392;48.912;8.380;2023-01-19T02:51:53;6.80;51.30
28087;DHT22;15392;48.912;8.380;2023-01-19T02:54:25;6.80;51.30
28087;DHT22;15392;48.912;8.380;2023-01-19T02:57:12;6.80;51.30
28087;DHT22;15392;48.912;8.380;2023-01-19T02:59:57;6.80;51.90
28087;DHT22;15392;48.912;8.380;2023-01-19T03:08:54;6.70;51.30
28087;DHT22;15392;48.912;8.380;2023-01-19T03:11:31;6.80;51.40
28087;DHT22;15392;48.912;8.380;2023-01-19T03:14:13;6.70;51.40
28087;DHT22;15392;48.912;8.380;2023-01-19T03:16:46;6.80;51.60
28087;DHT22;15392;48.912;8.380;2023-01-19T03:19:28;6.80;51.60
28087;DHT22;15392;48.912;8.380;2023-01-19T03:22:02;6.80;51.60
28087;DHT22;15392;48.912;8.380;2023-01-19T03:24:33;6.80;51.40
28087;DHT22;15392;48.912;8.380;2023-01-19T03:27:09;6.80;51.40
28087;DHT22;15392;48.912;8.380;2023-01-19T03:29:40;6.80;51.40
28087;DHT22;15392;48.912;8.380;2023-01-19T03:32:11;6.80;51.50
28087;DHT22;15392;48.912;8.380;2023-01-19T03:34:41;6.80;51.30
28087;DHT22;15392;48.912;8.380;2023-01-19T03:37:09;6.80;52.00
28087;DHT22;15392;48.912;8.380;2023-01-19T03:39:36;6.80;51.50
28087;DHT22;15392;48.912;8.380;2023-01-19T03:42:07;6.80;51.50
28087;DHT22;15392;48.912;8.380;2023-01-19T03:44:36;6.80;51.50
28087;DHT22;15392;48.912;8.380;2023-01-19T03:47:05;6.80;51.50
28087;DHT22;15392;48.912;8.380;2023-01-19T03:49:34;6.80;51.40
28087;DHT22;15392;48.912;8.380;2023-01-19T03:51:59;6.80;51.60
28087;DHT22;15392;48.912;8.380;2023-01-19T03:54:25;6.80;51.60
28087;DHT22;15392;48.912;8.380;2023-01-19T03:56:51;6.70;51.60
28087;DHT22;15392;48.912;8.380;2023-01-19T03:59:18;6.80;51.70
28087;DHT22;15392;48.912;8.380;2023-01-19T04:01:46;6.80;51.70
28087;DHT22;15392;48.912;8.380;2023-01-19T04:04:12;6.70;51.90
28087;DHT22;15392;48.912;8.380;2023-01-19T04:06:40;6.80;51.90
28087;DHT22;15392;48.912;8.380;2023-01-19T04:09:06;6.80;51.90
28087;DHT22;15392;48.912;8.380;2023-01-19T04:11:32;6.80;52.00
28087;DHT22;15392;48.912;8.380;2023-01-19T04:13:58;6.80;52.00
28087;DHT22;15392;48.912;8.380;2023-01-19T04:16:24;6.80;51.90
28087;DHT22;15392;48.912;8.380;2023-01-19T04:18:50;6.80;51.90
28087;DHT22;15392;48.912;8.380;2023-01-19T04:21:17;6.80;51.80
28087;DHT22;15392;48.912;8.380;2023-01-19T04:23:44;6.80;51.70
28087;DHT22;15392;48.912;8.380;2023-01-19T04:26:10;6.80;51.90
28087;DHT22;15392;48.912;8.380;2023-01-19T04:28:36;6.80;52.00
28087;DHT22;15392;48.912;8.380;2023-01-19T04:31:04;6.80;52.10
28087;DHT22;15392;48.912;8.380;2023-01-19T04:33:30;6.80;52.00
28087;DHT22;15392;48.912;8.380;2023-01-19T04:35:57;6.80;51.90
28087;DHT22;15392;48.912;8.380;2023-01-19T04:38:26;6.70;51.80
28087;DHT22;15392;48.912;8.380;2023-01-19T04:40:52;6.70;51.90
28087;DHT22;15392;48.912;8.380;2023-01-19T04:43:19;6.70;51.90
28087;DHT22;15392;48.912;8.380;2023-01-19T04:45:46;6.70;51.80
28087;DHT22;15392;48.912;8.380;2023-01-19T04:48:13;6.70;51.60
28087;DHT22;15392;48.912;8.380;2023-01-19T04:50:39;6.70;51.50
28087;DHT22;15392;48.912;8.380;2023-01-19T04:53:05;6.70;51.60
28087;DHT22;15392;48.912;8.380;2023-01-19T04:55:31;6.60;51.60
28087;DHT22;15392;48.912;8.380;2023-01-19T04:57:57;6.60;51.90
28087;DHT22;15392;48.912;8.380;2023-01-19T05:00:23;6.60;52.00
28087;DHT22;15392;48.912;8.380;2023-01-19T05:02:48;6.60;52.00
28087;DHT22;15392;48.912;8.380;2023-01-19T05:05:14;6.50;51.90
28087;DHT22;15392;48.912;8.380;2023-01-19T05:07:41;6.50;51.70
28087;DHT22;15392;48.912;8.380;2023-01-19T05:10:08;6.50;51.70
28087;DHT22;15392;48.912;8.380;2023-01-19T05:12:34;6.40;51.70
28087;DHT22;15392;48.912;8.380;2023-01-19T05:15:00;6.40;51.70
28087;DHT22;15392;48.912;8.380;2023-01-19T05:17:26;6.40;51.70
28087;DHT22;15392;48.912;8.380;2023-01-19T05:19:52;6.40;51.70
28087;DHT22;15392;48.912;8.380;2023-01-19T05:22:18;6.40;51.80
28087;DHT22;15392;48.912;8.380;2023-01-19T05:24:44;6.30;51.70
28087;DHT22;15392;48.912;8.380;2023-01-19T05:27:10;6.40;51.80
28087;DHT22;15392;48.912;8.380;2023-01-19T05:29:35;6.40;51.90
28087;DHT22;15392;48.912;8.380;2023-01-19T05:32:01;6.30;51.90
28087;DHT22;15392;48.912;8.380;2023-01-19T05:34:27;6.30;51.80
28087;DHT22;15392;48.912;8.380;2023-01-19T05:36:53;6.30;51.80
28087;DHT22;15392;48.912;8.380;2023-01-19T05:39:19;6.20;51.70
28087;DHT22;15392;48.912;8.380;2023-01-19T05:41:44;6.20;51.70
28087;DHT22;15392;48.912;8.380;2023-01-19T05:44:11;6.20;51.70
28087;DHT22;15392;48.912;8.380;2023-01-19T05:46:37;6.20;51.70
28087;DHT22;15392;48.912;8.380;2023-01-19T05:49:03;6.20;51.60
28087;DHT22;15392;48.912;8.380;2023-01-19T05:51:33;6.20;51.60
28087;DHT22;15392;48.912;8.380;2023-01-19T05:54:06;6.10;51.60
28087;DHT22;15392;48.912;8.380;2023-01-19T05:56:33;6.10;51.60
28087;DHT22;15392;48.912;8.380;2023-01-19T05:59:00;6.10;51.70
28087;DHT22;15392;48.912;8.380;2023-01-19T06:01:26;6.10;51.70
28087;DHT22;15392;48.912;8.380;2023-01-19T06:03:52;6.10;51.80
28087;DHT22;15392;48.912;8.380;2023-01-19T06:06:18;6.10;51.80
28087;DHT22;15392;48.912;8.380;2023-01-19T06:08:44;6.10;51.80
28087;DHT22;15392;48.912;8.380;2023-01-19T06:11:10;6.10;51.80
28087;DHT22;15392;48.912;8.380;2023-01-19T06:13:36;6.10;51.80
28087;DHT22;15392;48.912;8.380;2023-01-19T06:16:04;6.10;51.90
28087;DHT22;15392;48.912;8.380;2023-01-19T06:18:30;6.10;51.80
28087;DHT22;15392;48.912;8.380;2023-01-19T06:20:56;6.10;51.80
28087;DHT22;15392;48.912;8.380;2023-01-19T06:23:26;6.10;51.80
28087;DHT22;15392;48.912;8.380;2023-01-19T06:25:53;6.10;51.80
28087;DHT22;15392;48.912;8.380;2023-01-19T06:28:19;6.10;51.90
28087;DHT22;15392;48.912;8.380;2023-01-19T06:30:52;6.10;51.90
28087;DHT22;15392;48.912;8.380;2023-01-19T06:33:19;6.10;52.00
28087;DHT22;15392;48.912;8.380;2023-01-19T06:35:47;6.10;52.00
28087;DHT22;15392;48.912;8.380;2023-01-19T06:38:14;6.10;52.00
28087;DHT22;15392;48.912;8.380;2023-01-19T06:40:42;6.10;51.90
28087;DHT22;15392;48.912;8.380;2023-01-19T06:43:08;6.10;51.90
28087;DHT22;15392;48.912;8.380;2023-01-19T06:45:34;6.20;51.90
28087;DHT22;15392;48.912;8.380;2023-01-19T06:47:59;6.20;52.00
28087;DHT22;15392;48.912;8.380;2023-01-19T06:50:26;6.10;51.90
28087;DHT22;15392;48.912;8.380;2023-01-19T06:52:52;6.10;52.00
28087;DHT22;15392;48.912;8.380;2023-01-19T06:55:18;6.10;52.10
28087;DHT22;15392;48.912;8.380;2023-01-19T06:57:44;6.20;52.10
28087;DHT22;15392;48.912;8.380;2023-01-19T07:00:11;6.10;52.00
28087;DHT22;15392;48.912;8.380;2023-01-19T07:02:41;6.20;52.10
28087;DHT22;15392;48.912;8.380;2023-01-19T07:05:08;6.20;52.20
28087;DHT22;15392;48.912;8.380;2023-01-19T07:07:36;6.10;52.10
28087;DHT22;15392;48.912;8.380;2023-01-19T07:10:05;6.10;52.20
28087;DHT22;15392;48.912;8.380;2023-01-19T07:12:33;6.20;52.30
28087;DHT22;15392;48.912;8.380;2023-01-19T07:14:59;6.20;52.30
28087;DHT22;15392;48.912;8.380;2023-01-19T07:17:25;6.20;52.20
28087;DHT22;15392;48.912;8.380;2023-01-19T07:19:50;6.20;52.20
28087;DHT22;15392;48.912;8.380;2023-01-19T07:22:16;6.20;52.30
28087;DHT22;15392;48.912;8.380;2023-01-19T07:24:42;6.20;52.30
28087;DHT22;15392;48.912;8.380;2023-01-19T07:27:08;6.30;52.40
28087;DHT22;15392;48.912;8.380;2023-01-19T07:29:36;6.30;52.40
28087;DHT22;15392;48.912;8.380;2023-01-19T07:32:02;6.30;52.50
28087;DHT22;15392;48.912;8.380;2023-01-19T07:34:28;6.30;52.60
28087;DHT22;15392;48.912;8.380;2023-01-19T07:36:57;6.30;52.60
28087;DHT22;15392;48.912;8.380;2023-01-19T07:39:23;6.30;52.70
28087;DHT22;15392;48.912;8.380;2023-01-19T07:41:49;6.40;52.50
28087;DHT22;15392;48.912;8.380;2023-01-19T07:44:15;6.40;52.40
28087;DHT22;15392;48.912;8.380;2023-01-19T07:46:40;6.40;52.20
28087;DHT22;15392;48.912;8.380;2023-01-19T07:49:07;6.40;52.20
28087;DHT22;15392;48.912;8.380;2023-01-19T07:51:33;6.40;52.20
28087;DHT22;15392;48.912;8.380;2023-01-19T07:53:59;6.50;52.30
28087;DHT22;15392;48.912;8.380;2023-01-19T07:56:26;6.50;52.40
28087;DHT22;15392;48.912;8.380;2023-01-19T07:58:54;6.50;52.40
28087;DHT22;15392;48.912;8.380;2023-01-19T08:01:20;6.50;52.50
28087;DHT22;15392;48.912;8.380;2023-01-19T08:03:47;6.60;52.40
28087;DHT22;15392;48.912;8.380;2023-01-19T08:06:26;6.60;52.30
28087;DHT22;15392;48.912;8.380;2023-01-19T08:08:57;6.60;52.40
28087;DHT22;15392;48.912;8.380;2023-01-19T08:11:22;6.60;52.30
28087;DHT22;15392;48.912;8.380;2023-01-19T08:13:48;6.60;52.20
28087;DHT22;15392;48.912;8.380;2023-01-19T08:16:14;6.70;52.20
28087;DHT22;15392;48.912;8.380;2023-01-19T08:18:39;6.60;52.10
28087;DHT22;15392;48.912;8.380;2023-01-19T08:21:05;6.70;52.10
28087;DHT22;15392;48.912;8.380;2023-01-19T08:23:31;6.70;52.20
28087;DHT22;15392;48.912;8.380;2023-01-19T08:25:57;6.70;52.10
28087;DHT22;15392;48.912;8.380;2023-01-19T08:28:25;6.70;52.00
28087;DHT22;15392;48.912;8.380;2023-01-19T08:30:51;6.70;52.10
28087;DHT22;15392;48.912;8.380;2023-01-19T08:33:23;6.70;52.00
28087;DHT22;15392;48.912;8.380;2023-01-19T08:35:51;6.70;52.20
28087;DHT22;15392;48.912;8.380;2023-01-19T08:38:18;6.70;52.20
28087;DHT22;15392;48.912;8.380;2023-01-19T08:40:45;6.70;52.20
28087;DHT22;15392;48.912;8.380;2023-01-19T08:43:13;6.70;52.10
28087;DHT22;15392;48.912;8.380;2023-01-19T08:45:42;6.80;52.10
28087;DHT22;15392;48.912;8.380;2023-01-19T08:48:13;6.80;52.00
28087;DHT22;15392;48.912;8.380;2023-01-19T08:50:45;6.80;52.00
28087;DHT22;15392;48.912;8.380;2023-01-19T08:53:11;6.80;52.00
28087;DHT22;15392;48.912;8.380;2023-01-19T08:55:37;6.80;52.00
28087;DHT22;15392;48.912;8.380;2023-01-19T08:58:04;6.80;52.00
28087;DHT22;15392;48.912;8.380;2023-01-19T09:00:31;6.80;52.00
28087;DHT22;15392;48.912;8.380;2023-01-19T09:03:03;6.80;52.10
28087;DHT22;15392;48.912;8.380;2023-01-19T09:05:34;6.80;52.10
28087;DHT22;15392;48.912;8.380;2023-01-19T09:08:03;6.90;52.10
28087;DHT22;15392;48.912;8.380;2023-01-19T09:10:30;6.90;52.00
28087;DHT22;15392;48.912;8.380;2023-01-19T09:13:03;6.90;51.90
28087;DHT22;15392;48.912;8.380;2023-01-19T09:15:30;6.90;52.00
28087;DHT22;15392;48.912;8.380;2023-01-19T09:17:58;6.90;52.10
28087;DHT22;15392;48.912;8.380;2023-01-19T09:20:24;6.90;52.10
28087;DHT22;15392;48.912;8.380;2023-01-19T09:22:50;6.90;52.00
28087;DHT22;15392;48.912;8.380;2023-01-19T09:25:15;6.90;51.90
28087;DHT22;15392;48.912;8.380;2023-01-19T09:27:41;6.90;52.00
28087;DHT22;15392;48.912;8.380;2023-01-19T09:30:07;6.90;52.10
28087;DHT22;15392;48.912;8.380;2023-01-19T09:32:35;6.90;52.60
28087;DHT22;15392;48.912;8.380;2023-01-19T09:35:02;7.00;52.00
28087;DHT22;15392;48.912;8.380;2023-01-19T09:37:28;7.00;52.00
28087;DHT22;15392;48.912;8.380;2023-01-19T09:39:54;7.00;52.00
28087;DHT22;15392;48.912;8.380;2023-01-19T09:42:40;7.00;52.00
28087;DHT22;15392;48.912;8.380;2023-01-19T09:45:17;7.10;52.20
28087;DHT22;15392;48.912;8.380;2023-01-19T09:47:47;7.10;52.10
28087;DHT22;15392;48.912;8.380;2023-01-19T09:50:34;7.10;52.10
28087;DHT22;15392;48.912;8.380;2023-01-19T09:53:15;7.20;52.30
28087;DHT22;15392;48.912;8.380;2023-01-19T09:55:45;7.30;52.40
28087;DHT22;15392;48.912;8.380;2023-01-19T09:58:13;7.40;52.50
28087;DHT22;15392;48.912;8.380;2023-01-19T10:01:01;7.50;52.40
28087;DHT22;15392;48.912;8.380;2023-01-19T10:03:36;7.60;52.30
28087;DHT22;15392;48.912;8.380;2023-01-19T10:06:06;7.70;52.50
28087;DHT22;15392;48.912;8.380;2023-01-19T10:11:42;8.00;52.30
28087;DHT22;15392;48.912;8.380;2023-01-19T10:14:25;8.10;51.80
28087;DHT22;15392;48.912;8.380;2023-01-19T10:17:14;8.20;51.50
28087;DHT22;15392;48.912;8.380;2023-01-19T10:19:45;8.20;51.40
28087;DHT22;15392;48.912;8.380;2023-01-19T10:22:24;8.30;51.30
28087;DHT22;15392;48.912;8.380;2023-01-19T10:25:01;8.30;51.20
28087;DHT22;15392;48.912;8.380;2023-01-19T10:27:31;8.30;51.10
28087;DHT22;15392;48.912;8.380;2023-01-19T10:29:59;8.30;51.20
28087;DHT22;15392;48.912;8.380;2023-01-19T10:32:29;8.30;51.20
28087;DHT22;15392;48.912;8.380;2023-01-19T10:34:57;8.30;51.30
28087;DHT22;15392;48.912;8.380;2023-01-19T10:37:29;8.20;51.30
28087;DHT22;15392;48.912;8.380;2023-01-19T10:42:38;8.10;51.20
28087;DHT22;15392;48.912;8.380;2023-01-19T10:45:21;8.10;51.20
28087;DHT22;15392;48.912;8.380;2023-01-19T10:47:49;8.10;51.30
28087;DHT22;15392;48.912;8.380;2023-01-19T10:50:32;8.00;51.20
28087;DHT22;15392;48.912;8.380;2023-01-19T10:53:01;8.00;51.20
28087;DHT22;15392;48.912;8.380;2023-01-19T10:57:56;7.90;51.20
28087;DHT22;15392;48.912;8.380;2023-01-19T11:00:49;7.90;51.20
28087;DHT22;15392;48.912;8.380;2023-01-19T11:03:28;7.80;51.10
28087;DHT22;15392;48.912;8.380;2023-01-19T11:06:19;7.80;51.30
28087;DHT22;15392;48.912;8.380;2023-01-19T11:08:47;7.80;51.50
28087;DHT22;15392;48.912;8.380;2023-01-19T11:11:16;7.70;51.50
28087;DHT22;15392;48.912;8.380;2023-01-19T11:13:44;7.70;51.50
28087;DHT22;15392;48.912;8.380;2023-01-19T11:16:26;7.70;51.60
28087;DHT22;15392;48.912;8.380;2023-01-19T11:18:55;7.70;51.60
28087;DHT22;15392;48.912;8.380;2023-01-19T11:21:24;7.70;51.50
28087;DHT22;15392;48.912;8.380;2023-01-19T11:23:59;7.70;51.50
28087;DHT22;15392;48.912;8.380;2023-01-19T11:29:05;7.60;51.60
28087;DHT22;15392;48.912;8.380;2023-01-19T11:31:45;7.60;51.60
28087;DHT22;15392;48.912;8.380;2023-01-19T11:37:00;7.60;51.60
28087;DHT22;15392;48.912;8.380;2023-01-19T11:39:30;7.60;51.50
28087;DHT22;15392;48.912;8.380;2023-01-19T11:42:02;7.60;51.60
28087;DHT22;15392;48.912;8.380;2023-01-19T11:44:32;7.60;51.60
28087;DHT22;15392;48.912;8.380;2023-01-19T11:47:02;7.60;51.70
28087;DHT22;15392;48.912;8.380;2023-01-19T11:49:46;7.50;51.60
28087;DHT22;15392;48.912;8.380;2023-01-19T11:55:15;7.50;51.70
28087;DHT22;15392;48.912;8.380;2023-01-19T11:58:02;7.50;51.70
28087;DHT22;15392;48.912;8.380;2023-01-19T12:00:45;7.50;51.80
28087;DHT22;15392;48.912;8.380;2023-01-19T12:03:53;7.50;51.70
28087;DHT22;15392;48.912;8.380;2023-01-19T12:06:18;7.50;51.70
28087;DHT22;15392;48.912;8.380;2023-01-19T12:11:35;7.50;51.80
28087;DHT22;15392;48.912;8.380;2023-01-19T12:14:02;7.50;51.90
28087;DHT22;15392;48.912;8.380;2023-01-19T12:16:30;7.50;52.00
28087;DHT22;15392;48.912;8.380;2023-01-19T12:19:10;7.60;51.90
28087;DHT22;15392;48.912;8.380;2023-01-19T12:21:40;7.50;51.90
28087;DHT22;15392;48.912;8.380;2023-01-19T12:26:58;7.60;52.20
28087;DHT22;15392;48.912;8.380;2023-01-19T12:29:31;7.60;52.10
28087;DHT22;15392;48.912;8.380;2023-01-19T12:34:44;7.60;52.20
28087;DHT22;15392;48.912;8.380;2023-01-19T12:37:27;7.60;52.10
28087;DHT22;15392;48.912;8.380;2023-01-19T12:40:25;7.70;52.20
28087;DHT22;15392;48.912;8.380;2023-01-19T12:43:13;7.70;52.30
28087;DHT22;15392;48.912;8.380;2023-01-19T12:45:45;7.70;52.30
28087;DHT22;15392;48.912;8.380;2023-01-19T12:48:25;7.70;52.20
28087;DHT22;15392;48.912;8.380;2023-01-19T12:50:51;7.80;52.20
28087;DHT22;15392;48.912;8.380;2023-01-19T12:53:19;7.80;52.10
28087;DHT22;15392;48.912;8.380;2023-01-19T12:55:57;7.80;52.10
28087;DHT22;15392;48.912;8.380;2023-01-19T12:58:25;7.80;52.20
28087;DHT22;15392;48.912;8.380;2023-01-19T13:01:15;7.80;52.00
28087;DHT22;15392;48.912;8.380;2023-01-19T13:03:56;7.90;52.20
28087;DHT22;15392;48.912;8.380;2023-01-19T13:09:32;7.90;52.00
28087;DHT22;15392;48.912;8.380;2023-01-19T13:14:41;7.90;52.00
28087;DHT22;15392;48.912;8.380;2023-01-19T13:20:04;7.90;52.00
28087;DHT22;15392;48.912;8.380;2023-01-19T13:25:29;7.90;52.00
28087;DHT22;15392;48.912;8.380;2023-01-19T13:27:58;7.90;52.10
28087;DHT22;15392;48.912;8.380;2023-01-19T13:30:26;7.90;52.10
28087;DHT22;15392;48.912;8.380;2023-01-19T13:32:55;7.90;52.20
28087;DHT22;15392;48.912;8.380;2023-01-19T13:35:22;7.90;52.20
28087;DHT22;15392;48.912;8.380;2023-01-19T13:37:49;7.90;52.10
28087;DHT22;15392;48.912;8.380;2023-01-19T13:40:32;8.00;52.10
28087;DHT22;15392;48.912;8.380;2023-01-19T13:43:02;7.90;52.20
28087;DHT22;15392;48.912;8.380;2023-01-19T13:45:36;7.90;52.10
28087;DHT22;15392;48.912;8.380;2023-01-19T13:48:06;8.00;52.70
28087;DHT22;15392;48.912;8.380;2023-01-19T13:50:35;8.00;52.10
28087;DHT22;15392;48.912;8.380;2023-01-19T13:53:17;8.00;52.10
28087;DHT22;15392;48.912;8.380;2023-01-19T13:55:45;8.00;52.00
28087;DHT22;15392;48.912;8.380;2023-01-19T13:58:22;8.00;51.90
28087;DHT22;15392;48.912;8.380;2023-01-19T14:00:48;8.00;51.90
28087;DHT22;15392;48.912;8.380;2023-01-19T14:05:41;8.00;51.80
28087;DHT22;15392;48.912;8.380;2023-01-19T14:10:39;8.00;51.90
28087;DHT22;15392;48.912;8.380;2023-01-19T14:13:16;8.00;51.90
28087;DHT22;15392;48.912;8.380;2023-01-19T14:15:43;8.00;52.00
28087;DHT22;15392;48.912;8.380;2023-01-19T14:26:41;8.10;51.90
28087;DHT22;15392;48.912;8.380;2023-01-19T14:37:04;8.10;51.80
28087;DHT22;15392;48.912;8.380;2023-01-19T14:39:43;8.10;51.80
28087;DHT22;15392;48.912;8.380;2023-01-19T14:42:15;8.10;51.80
28087;DHT22;15392;48.912;8.380;2023-01-19T14:44:46;8.20;51.80
28087;DHT22;15392;48.912;8.380;2023-01-19T14:47:32;8.20;51.60
28087;DHT22;15392;48.912;8.380;2023-01-19T14:50:26;8.20;52.10
28087;DHT22;15392;48.912;8.380;2023-01-19T14:53:15;8.20;51.50
28087;DHT22;15392;48.912;8.380;2023-01-19T14:55:57;8.20;51.40
28087;DHT22;15392;48.912;8.380;2023-01-19T14:58:26;8.20;51.40
28087;DHT22;15392;48.912;8.380;2023-01-19T15:00:55;8.20;51.40
28087;DHT22;15392;48.912;8.380;2023-01-19T15:03:22;8.20;51.30
28087;DHT22;15392;48.912;8.380;2023-01-19T15:05:49;8.10;51.40
28087;DHT22;15392;48.912;8.380;2023-01-19T15:08:23;8.10;51.40
28087;DHT22;15392;48.912;8.380;2023-01-19T15:10:50;8.10;51.20
28087;DHT22;15392;48.912;8.380;2023-01-19T15:13:18;8.10;51.30
28087;DHT22;15392;48.912;8.380;2023-01-19T15:15:45;8.10;51.30
28087;DHT22;15392;48.912;8.380;2023-01-19T15:18:15;8.10;51.50
28087;DHT22;15392;48.912;8.380;2023-01-19T15:20:42;8.10;51.60
28087;DHT22;15392;48.912;8.380;2023-01-19T15:23:11;8.10;51.50
28087;DHT22;15392;48.912;8.380;2023-01-19T15:25:37;8.00;51.30
28087;DHT22;15392;48.912;8.380;2023-01-19T15:28:11;8.00;51.40
28087;DHT22;15392;48.912;8.380;2023-01-19T15:30:38;8.00;51.50
28087;DHT22;15392;48.912;8.380;2023-01-19T15:33:04;8.00;51.30
28087;DHT22;15392;48.912;8.380;2023-01-19T15:35:30;8.00;51.40
28087;DHT22;15392;48.912;8.380;2023-01-19T15:37:55;8.00;51.50
28087;DHT22;15392;48.912;8.380;2023-01-19T15:40:21;8.00;51.50
28087;DHT22;15392;48.912;8.380;2023-01-19T15:42:48;8.00;51.40
28087;DHT22;15392;48.912;8.380;2023-01-19T15:45:55;8.00;51.30
28087;DHT22;15392;48.912;8.380;2023-01-19T15:48:16;7.90;51.10
28087;DHT22;15392;48.912;8.380;2023-01-19T15:50:44;7.90;51.10
28087;DHT22;15392;48.912;8.380;2023-01-19T15:53:18;7.90;51.00
28087;DHT22;15392;48.912;8.380;2023-01-19T15:55:49;7.80;51.00
28087;DHT22;15392;48.912;8.380;2023-01-19T15:58:16;7.80;51.00
28087;DHT22;15392;48.912;8.380;2023-01-19T16:00:44;7.80;51.00
28087;DHT22;15392;48.912;8.380;2023-01-19T16:03:17;7.70;51.10
28087;DHT22;15392;48.912;8.380;2023-01-19T16:05:43;7.70;51.10
28087;DHT22;15392;48.912;8.380;2023-01-19T16:08:10;7.70;51.20
28087;DHT22;15392;48.912;8.380;2023-01-19T16:10:36;7.70;51.30
28087;DHT22;15392;48.912;8.380;2023-01-19T16:13:02;7.60;51.30
28087;DHT22;15392;48.912;8.380;2023-01-19T16:15:28;7.60;51.30
28087;DHT22;15392;48.912;8.380;2023-01-19T16:17:54;7.60;51.30
28087;DHT22;15392;48.912;8.380;2023-01-19T16:20:20;7.60;51.30
28087;DHT22;15392;48.912;8.380;2023-01-19T16:22:45;7.50;51.20
28087;DHT22;15392;48.912;8.380;2023-01-19T16:25:11;7.50;51.30
28087;DHT22;15392;48.912;8.380;2023-01-19T16:27:37;7.50;51.30
28087;DHT22;15392;48.912;8.380;2023-01-19T16:30:03;7.50;51.30
28087;DHT22;15392;48.912;8.380;2023-01-19T16:32:31;7.50;51.30
28087;DHT22;15392;48.912;8.380;2023-01-19T16:34:58;7.40;51.30
28087;DHT22;15392;48.912;8.380;2023-01-19T16:37:24;7.40;51.30
28087;DHT22;15392;48.912;8.380;2023-01-19T16:39:49;7.40;51.40
28087;DHT22;15392;48.912;8.380;2023-01-19T16:42:15;7.40;51.50
28087;DHT22;15392;48.912;8.380;2023-01-19T16:44:41;7.30;51.40
28087;DHT22;15392;48.912;8.380;2023-01-19T16:47:07;7.30;51.40
28087;DHT22;15392;48.912;8.380;2023-01-19T16:49:33;7.30;51.40
28087;DHT22;15392;48.912;8.380;2023-01-19T16:51:59;7.30;51.40
28087;DHT22;15392;48.912;8.380;2023-01-19T16:54:26;7.30;51.40
28087;DHT22;15392;48.912;8.380;2023-01-19T16:56:53;7.20;51.40
28087;DHT22;15392;48.912;8.380;2023-01-19T16:59:20;7.20;51.40
28087;DHT22;15392;48.912;8.380;2023-01-19T17:01:47;7.20;51.40
28087;DHT22;15392;48.912;8.380;2023-01-19T17:04:18;7.10;51.30
28087;DHT22;15392;48.912;8.380;2023-01-19T17:06:44;7.10;51.40
28087;DHT22;15392;48.912;8.380;2023-01-19T17:09:14;7.10;51.50
28087;DHT22;15392;48.912;8.380;2023-01-19T17:11:40;7.10;51.50
28087;DHT22;15392;48.912;8.380;2023-01-19T17:14:15;7.00;51.50